createdAt,value
2022-09-22T00:02:59.295Z,10.68
2022-09-22T00:08:02.495Z,10.80
2022-09-22T00:13:05.060Z,10.60
2022-09-22T00:18:08.928Z,10.82
2022-09-22T00:23:11.495Z,10.83
2022-09-22T00:28:14.030Z,10.78
2022-09-22T00:33:17.895Z,10.77
2022-09-22T00:38:20.433Z,10.74
2022-09-22T00:43:26.354Z,10.46
2022-09-22T00:48:34.363Z,10.52
2022-09-22T00:53:37.521Z,10.57
2022-09-22T00:58:48.135Z,10.61
2022-09-22T01:03:52.079Z,10.56
2022-09-22T01:08:55.191Z,10.54
2022-09-22T01:14:07.982Z,10.46
2022-09-22T01:19:40.564Z,10.51
2022-09-22T01:24:49.416Z,10.45
2022-09-22T01:30:24.871Z,10.43
2022-09-22T01:35:32.493Z,10.28
2022-09-22T01:40:42.707Z,9.43
2022-09-22T01:45:49.168Z,10.22
2022-09-22T01:50:56.146Z,10.22
2022-09-22T01:56:02.792Z,10.21
2022-09-22T02:01:14.720Z,10.24
2022-09-22T02:06:21.474Z,10.22
2022-09-22T02:11:24.859Z,10.07
2022-09-22T02:16:29.183Z,9.88
2022-09-22T02:21:32.108Z,10.00
2022-09-22T02:26:37.277Z,9.72
2022-09-22T02:31:41.815Z,9.98
2022-09-22T02:36:56.516Z,9.95
2022-09-22T02:42:17.411Z,9.84
2022-09-22T02:47:28.115Z,9.88
2022-09-22T02:52:30.754Z,9.79
2022-09-22T02:57:33.553Z,9.51
2022-09-22T03:02:38.353Z,9.60
2022-09-22T03:07:40.897Z,9.59
2022-09-22T03:13:09.082Z,9.69
2022-09-22T03:18:08.214Z,9.68
2022-09-22T03:23:10.844Z,9.63
2022-09-22T03:28:13.410Z,9.68
2022-09-22T03:33:17.285Z,9.68
2022-09-22T03:38:19.813Z,9.65
2022-09-22T03:43:22.678Z,9.67
2022-09-22T03:48:27.871Z,9.55
2022-09-22T03:53:30.966Z,9.58
2022-09-22T03:58:33.638Z,9.46
2022-09-22T04:03:38.155Z,9.39
2022-09-22T04:08:40.682Z,9.54
2022-09-22T04:13:46.437Z,9.53
2022-09-22T04:18:50.990Z,9.53
2022-09-22T04:23:53.594Z,9.42
2022-09-22T04:28:56.431Z,9.41
2022-09-22T04:34:04.184Z,9.29
2022-09-22T04:39:09.450Z,9.07
2022-09-22T04:44:11.968Z,9.26
2022-09-22T04:49:15.926Z,9.15
2022-09-22T04:54:18.505Z,9.08
2022-09-22T04:59:21.090Z,9.12
2022-09-22T05:04:25.984Z,9.17
2022-09-22T05:09:29.102Z,9.21
2022-09-22T05:14:32.452Z,9.23
2022-09-22T05:19:36.326Z,9.26
2022-09-22T05:24:42.343Z,9.14
2022-09-22T05:29:44.928Z,9.19
2022-09-22T05:34:48.993Z,9.20
2022-09-22T05:39:51.866Z,9.24
2022-09-22T05:44:54.831Z,9.34
2022-09-22T05:49:58.784Z,9.34
2022-09-22T05:55:01.488Z,9.43
2022-09-22T06:00:05.941Z,9.36
2022-09-22T06:05:18.639Z,9.45
2022-09-22T06:10:22.389Z,9.55
2022-09-22T06:15:24.962Z,9.59
2022-09-22T06:20:29.476Z,9.82
2022-09-22T06:25:32.038Z,9.90
2022-09-22T06:30:36.502Z,9.90
2022-09-22T06:35:42.795Z,10.00
2022-09-22T06:40:45.574Z,10.09
2022-09-22T06:45:48.682Z,10.09
2022-09-22T06:50:54.615Z,10.09
2022-09-22T06:55:58.330Z,10.19
2022-09-22T07:01:09.681Z,10.47
2022-09-22T07:06:20.364Z,10.56
2022-09-22T07:11:23.479Z,10.72
2022-09-22T07:16:27.609Z,10.86
2022-09-22T07:21:35.096Z,11.07
2022-09-22T07:26:39.715Z,11.37
2022-09-22T07:31:43.023Z,11.47
2022-09-22T07:36:49.059Z,11.42
2022-09-22T07:41:52.024Z,11.76
2022-09-22T07:46:54.603Z,11.94
2022-09-22T07:51:58.874Z,12.16
2022-09-22T07:57:06.719Z,12.34
2022-09-22T08:02:10.304Z,12.55
2022-09-22T08:07:15.203Z,12.82
2022-09-22T08:12:17.739Z,12.99
2022-09-22T08:17:20.307Z,13.02
2022-09-22T08:22:24.243Z,13.13
2022-09-22T08:27:29.700Z,13.27
2022-09-22T08:32:32.255Z,13.44
2022-09-22T08:37:36.830Z,13.84
2022-09-22T08:42:41.114Z,13.94
2022-09-22T08:48:07.467Z,13.94
2022-09-22T08:53:15.583Z,13.80
2022-09-22T08:58:30.031Z,14.04
2022-09-22T09:03:50.646Z,14.04
2022-09-22T09:09:07.159Z,14.09
2022-09-22T09:14:23.729Z,14.07
2022-09-22T09:19:33.273Z,14.16
2022-09-22T09:30:17.788Z,14.36
2022-09-22T09:35:26.472Z,14.43
2022-09-22T09:40:30.934Z,14.47
2022-09-22T09:45:45.672Z,14.56
2022-09-22T09:50:48.308Z,14.71
2022-09-22T09:55:52.306Z,14.80
2022-09-22T10:00:58.562Z,14.93
2022-09-22T10:06:02.991Z,15.04
2022-09-22T10:11:07.712Z,15.12
2022-09-22T10:16:33.410Z,15.16
2022-09-22T10:21:37.537Z,15.24
2022-09-22T10:26:55.095Z,15.32
2022-09-22T10:32:03.050Z,15.43
2022-09-22T10:37:09.480Z,15.42
2022-09-22T10:42:34.372Z,15.66
2022-09-22T10:47:47.351Z,15.67
2022-09-22T10:52:56.392Z,15.89
2022-09-22T10:58:19.258Z,15.99
2022-09-22T11:03:49.053Z,16.14
2022-09-22T11:09:18.791Z,16.42
2022-09-22T11:14:36.161Z,16.83
2022-09-22T11:20:08.536Z,17.12
2022-09-22T11:25:23.144Z,17.49
2022-09-22T11:30:27.372Z,17.76
2022-09-22T11:35:50.666Z,17.90
2022-09-22T11:41:16.238Z,18.00
2022-09-22T11:46:26.895Z,18.21
2022-09-22T11:51:41.348Z,18.54
2022-09-22T11:56:48.060Z,18.54
2022-09-22T12:01:55.127Z,18.64
2022-09-22T12:06:59.984Z,18.76
2022-09-22T12:12:05.539Z,18.94
2022-09-22T12:17:18.827Z,19.23
2022-09-22T12:22:30.924Z,19.20
2022-09-22T12:27:34.191Z,19.46
2022-09-22T12:32:40.634Z,19.58
2022-09-22T12:37:43.578Z,19.75
2022-09-22T12:42:50.685Z,20.08
2022-09-22T12:47:57.736Z,20.36
2022-09-22T12:53:04.790Z,20.46
2022-09-22T12:58:41.467Z,20.68
2022-09-22T13:03:52.370Z,20.88
2022-09-22T13:09:20.404Z,20.95
2022-09-22T13:14:57.590Z,21.26
2022-09-22T13:20:02.161Z,21.48
2022-09-22T13:25:15.632Z,21.67
2022-09-22T13:30:18.299Z,21.82
2022-09-22T13:35:32.056Z,21.76
2022-09-22T13:40:35.455Z,21.49
2022-09-22T13:45:40.459Z,21.46
2022-09-22T13:50:51.566Z,21.16
2022-09-22T13:55:54.408Z,20.86
2022-09-22T14:01:13.226Z,20.51
2022-09-22T14:06:20.403Z,20.24
2022-09-22T14:11:25.492Z,20.04
2022-09-22T14:16:33.463Z,19.89
2022-09-22T14:21:45.909Z,19.71
2022-09-22T14:26:50.640Z,19.64
2022-09-22T14:32:00.327Z,19.46
2022-09-22T14:37:17.587Z,19.44
2022-09-22T14:42:25.639Z,19.27
2022-09-22T14:47:29.669Z,19.28
2022-09-22T14:52:38.255Z,19.26
2022-09-22T14:57:45.637Z,19.16
2022-09-22T15:02:53.219Z,19.04
2022-09-22T15:07:58.465Z,18.99
2022-09-22T15:13:18.261Z,18.90
2022-09-22T15:18:20.946Z,18.81
2022-09-22T15:23:30.966Z,18.77
2022-09-22T15:28:37.611Z,18.66
2022-09-22T15:33:40.622Z,18.56
2022-09-22T15:38:45.099Z,18.49
2022-09-22T15:43:49.014Z,18.44
2022-09-22T15:48:53.871Z,18.36
2022-09-22T15:53:58.683Z,18.27
2022-09-22T15:59:02.050Z,18.20
2022-09-22T16:04:04.619Z,18.13
2022-09-22T16:09:08.915Z,18.10
2022-09-22T16:14:11.659Z,18.08
2022-09-22T16:19:14.301Z,18.02
2022-09-22T16:24:18.843Z,17.96
2022-09-22T16:29:22.102Z,17.89
2022-09-22T16:34:25.070Z,17.84
2022-09-22T16:39:29.263Z,17.78
2022-09-22T16:44:31.852Z,17.71
2022-09-22T16:49:35.207Z,17.66
2022-09-22T16:54:39.661Z,17.59
2022-09-22T16:59:42.641Z,17.53
2022-09-22T17:04:45.686Z,17.44
2022-09-22T17:38:36.091Z,16.69
2022-09-22T17:43:39.852Z,16.43
2022-09-22T17:49:00.201Z,16.33
2022-09-22T17:54:32.571Z,16.06
2022-09-22T17:59:35.546Z,15.95
2022-09-22T18:04:38.661Z,15.83
2022-09-22T18:09:42.976Z,15.80
2022-09-22T18:14:46.661Z,15.70
2022-09-22T18:19:49.330Z,15.57
2022-09-22T18:24:56.183Z,15.50
2022-09-22T18:29:59.432Z,15.38
2022-09-22T18:35:02.333Z,15.32
2022-09-22T18:40:07.250Z,15.19
2022-09-22T18:45:11.394Z,15.16
2022-09-22T18:50:14.357Z,14.99
2022-09-22T18:55:19.172Z,14.92
2022-09-22T19:00:23.046Z,14.82
2022-09-22T19:05:25.731Z,14.75
2022-09-22T19:10:29.647Z,14.65
2022-09-22T19:15:32.302Z,14.56
2022-09-22T19:20:35.885Z,14.49
2022-09-22T19:25:41.378Z,14.40
2022-09-22T19:30:44.452Z,14.37
2022-09-22T19:35:47.080Z,14.26
2022-09-22T19:40:55.922Z,14.21
2022-09-22T19:45:58.534Z,14.16
2022-09-22T19:51:03.208Z,14.09
2022-09-22T19:56:07.430Z,13.98
2022-09-22T20:01:28.197Z,13.91
2022-09-22T20:06:31.291Z,13.73
2022-09-22T20:11:39.729Z,13.85
2022-09-22T20:16:45.993Z,13.79
2022-09-22T20:21:50.834Z,13.71
2022-09-22T20:26:55.434Z,13.66
2022-09-22T20:31:58.007Z,13.60
2022-09-22T20:37:00.623Z,13.63
2022-09-22T20:42:05.459Z,13.50
2022-09-22T20:47:10.893Z,13.46
2022-09-22T20:52:15.307Z,13.44
2022-09-22T20:57:19.766Z,13.35
2022-09-22T21:02:22.659Z,13.25
2022-09-22T21:07:25.789Z,13.18
2022-09-22T21:12:34.487Z,13.20
2022-09-22T21:17:43.715Z,13.16
2022-09-22T21:22:46.658Z,13.20
2022-09-22T21:27:50.617Z,13.17
2022-09-22T21:32:53.208Z,13.13
2022-09-22T21:37:59.217Z,13.14
2022-09-22T21:43:03.996Z,13.09
2022-09-22T21:48:06.535Z,13.09
2022-09-22T21:53:09.387Z,13.15
2022-09-22T21:58:13.242Z,13.20
2022-09-22T22:03:35.040Z,13.30
2022-09-22T22:08:41.752Z,13.34
2022-09-22T22:13:46.910Z,13.37
2022-09-22T22:18:49.864Z,13.11
2022-09-22T22:23:55.868Z,13.39
2022-09-22T22:29:00.245Z,13.41
2022-09-22T22:34:02.876Z,13.33
2022-09-22T22:39:05.872Z,13.28
2022-09-22T22:44:09.849Z,13.30
2022-09-22T22:49:12.861Z,13.28
2022-09-22T22:54:15.419Z,13.37
2022-09-22T22:59:19.549Z,13.40
2022-09-22T23:04:22.599Z,13.40
2022-09-22T23:09:25.200Z,13.44
2022-09-22T23:14:29.898Z,13.45
2022-09-22T23:19:34.425Z,13.46
2022-09-22T23:24:37.020Z,13.49
2022-09-22T23:29:42.071Z,13.43
2022-09-22T23:34:44.849Z,13.50
2022-09-22T23:39:47.943Z,13.50
2022-09-22T23:44:52.285Z,13.48
2022-09-22T23:49:55.484Z,13.50
2022-09-22T23:54:58.430Z,13.50
